createdAt,value
2019-05-05T00:00:59.910Z,10.57
2019-05-05T00:03:55.506Z,11.83
2019-05-05T00:06:28.475Z,13.00
2019-05-05T00:09:01.414Z,13.53
2019-05-05T00:12:14.682Z,14.37
2019-05-05T00:15:05.661Z,13.40
2019-05-05T00:17:39.500Z,11.47
2019-05-05T00:20:31.693Z,13.00
2019-05-05T00:23:05.311Z,11.70
2019-05-05T00:25:38.223Z,12.80
2019-05-05T00:28:11.072Z,12.67
2019-05-05T00:30:44.813Z,12.67
2019-05-05T00:33:17.721Z,14.40
2019-05-05T00:35:50.476Z,17.17
2019-05-05T00:38:24.854Z,14.20
2019-05-05T00:40:58.031Z,14.27
2019-05-05T00:43:30.832Z,16.90
2019-05-05T00:46:09.186Z,13.83
2019-05-05T00:48:44.518Z,16.30
2019-05-05T00:51:17.488Z,17.03
2019-05-05T00:53:50.372Z,19.40
2019-05-05T00:56:25.066Z,20.87
2019-05-05T00:59:04.481Z,19.83
2019-05-05T01:01:52.010Z,22.73
2019-05-05T01:04:32.001Z,15.03
2019-05-05T01:07:05.072Z,13.97
2019-05-05T01:09:39.363Z,14.20
2019-05-05T01:12:12.621Z,12.93
2019-05-05T01:14:47.336Z,15.03
2019-05-05T01:17:20.144Z,15.90
2019-05-05T01:20:01.271Z,24.77
2019-05-05T01:22:27.803Z,22.33
2019-05-05T01:25:00.826Z,22.33
2019-05-05T01:27:34.762Z,24.13
2019-05-05T01:30:15.173Z,27.20
2019-05-05T01:32:51.269Z,28.90
2019-05-05T01:35:24.910Z,30.73
2019-05-05T01:38:06.442Z,35.20
2019-05-05T01:40:49.849Z,27.93
2019-05-05T01:43:22.774Z,22.53
2019-05-05T01:45:55.911Z,22.87
2019-05-05T01:48:29.840Z,21.43
2019-05-05T01:51:05.030Z,23.40
2019-05-05T01:53:37.893Z,29.13
2019-05-05T01:56:10.967Z,21.60
2019-05-05T01:58:44.261Z,18.67
2019-05-05T02:01:17.344Z,17.80
2019-05-05T02:03:50.164Z,17.70
2019-05-05T02:06:24.815Z,23.33
2019-05-05T02:08:57.839Z,25.50
2019-05-05T02:11:30.845Z,27.07
2019-05-05T02:14:05.120Z,24.60
2019-05-05T02:16:38.209Z,21.23
2019-05-05T02:19:11.140Z,27.97
2019-05-05T02:21:45.334Z,24.50
2019-05-05T02:24:18.365Z,24.37
2019-05-05T02:26:51.158Z,22.67
2019-05-05T02:29:56.114Z,23.30
2019-05-05T02:32:46.683Z,25.97
2019-05-05T02:35:19.466Z,24.70
2019-05-05T02:37:52.261Z,25.07
2019-05-05T02:40:25.416Z,30.23
2019-05-05T02:42:58.529Z,21.13
2019-05-05T02:46:14.319Z,21.67
2019-05-05T02:48:49.463Z,22.77
2019-05-05T02:51:25.764Z,20.47
2019-05-05T02:54:04.261Z,21.93
2019-05-05T02:56:46.838Z,25.13
2019-05-05T02:59:29.234Z,25.63
2019-05-05T03:02:05.914Z,28.20
2019-05-05T03:04:40.011Z,28.00
2019-05-05T03:07:15.639Z,29.13
2019-05-05T03:09:50.459Z,34.60
2019-05-05T03:12:25.238Z,24.10
2019-05-05T03:15:00.093Z,25.90
2019-05-05T03:17:34.100Z,19.50
2019-05-05T03:20:07.511Z,18.87
2019-05-05T03:22:40.378Z,18.10
2019-05-05T03:25:13.668Z,19.70
2019-05-05T03:27:46.798Z,21.40
2019-05-05T03:30:19.869Z,25.80
2019-05-05T03:32:55.700Z,26.70
2019-05-05T03:35:27.655Z,26.87
2019-05-05T03:38:00.516Z,35.33
2019-05-05T03:40:35.549Z,29.07
2019-05-05T03:43:14.597Z,31.13
2019-05-05T03:45:55.480Z,39.77
2019-05-05T03:48:28.279Z,35.87
2019-05-05T03:51:01.396Z,34.97
2019-05-05T03:53:34.298Z,27.50
2019-05-05T03:56:07.306Z,29.07
2019-05-05T03:58:40.283Z,30.20
2019-05-05T04:01:51.156Z,27.23
2019-05-05T04:04:25.233Z,25.43
2019-05-05T04:06:58.323Z,23.57
2019-05-05T04:09:31.168Z,19.67
2019-05-05T04:12:04.573Z,16.23
2019-05-05T04:14:38.649Z,18.10
2019-05-05T04:17:27.491Z,14.23
2019-05-05T04:20:03.889Z,16.13
2019-05-05T04:22:36.690Z,23.00
2019-05-05T04:25:24.267Z,20.30
2019-05-05T04:27:56.965Z,20.33
2019-05-05T04:30:29.762Z,24.03
2019-05-05T04:33:04.008Z,19.60
2019-05-05T04:35:36.964Z,19.67
2019-05-05T04:38:09.713Z,18.43
2019-05-05T04:40:43.554Z,21.97
2019-05-05T04:43:17.491Z,21.63
2019-05-05T04:45:50.380Z,18.23
2019-05-05T04:48:32.236Z,15.63
2019-05-05T04:51:10.691Z,15.90
2019-05-05T04:54:03.640Z,19.10
2019-05-05T04:56:37.838Z,21.53
2019-05-05T04:59:10.782Z,14.97
2019-05-05T05:01:44.085Z,16.37
2019-05-05T05:04:53.544Z,21.77
2019-05-05T05:07:26.460Z,22.17
2019-05-05T05:09:59.495Z,22.70
2019-05-05T05:12:34.161Z,18.77
2019-05-05T05:15:08.483Z,19.63
2019-05-05T05:17:47.267Z,17.40
2019-05-05T05:20:20.019Z,16.97
2019-05-05T05:22:54.425Z,15.67
2019-05-05T05:25:27.609Z,17.30
2019-05-05T05:28:00.577Z,18.40
2019-05-05T05:30:34.665Z,20.33
2019-05-05T05:33:07.852Z,19.77
2019-05-05T05:35:40.661Z,21.60
2019-05-05T05:38:14.160Z,20.00
2019-05-05T05:41:06.888Z,20.93
2019-05-05T05:43:55.663Z,19.60
2019-05-05T05:46:37.766Z,17.40
2019-05-05T05:49:34.631Z,21.80
2019-05-05T05:52:16.285Z,19.70
2019-05-05T05:54:44.224Z,14.83
2019-05-05T05:57:17.165Z,15.40
2019-05-05T05:59:50.237Z,14.23
2019-05-05T06:02:24.200Z,17.50
2019-05-05T06:04:57.152Z,13.80
2019-05-05T06:07:30.107Z,14.63
2019-05-05T06:10:03.813Z,11.67
2019-05-05T06:12:36.781Z,12.40
2019-05-05T06:15:10.698Z,12.50
2019-05-05T06:17:43.705Z,16.43
2019-05-05T06:20:16.418Z,15.67
2019-05-05T06:22:49.328Z,15.40
2019-05-05T06:25:26.249Z,14.07
2019-05-05T06:27:56.874Z,17.10
2019-05-05T06:30:29.882Z,15.37
2019-05-05T06:33:04.923Z,16.27
2019-05-05T06:35:38.007Z,14.00
2019-05-05T06:38:10.806Z,15.20
2019-05-05T06:40:58.914Z,13.30
2019-05-05T06:43:38.576Z,12.43
2019-05-05T06:46:14.520Z,16.17
2019-05-05T06:48:47.711Z,16.43
2019-05-05T06:51:20.646Z,13.73
2019-05-05T06:53:54.077Z,14.97
2019-05-05T06:56:27.286Z,12.93
2019-05-05T06:59:00.172Z,20.60
2019-05-05T07:01:33.767Z,20.03
2019-05-05T07:04:06.858Z,19.93
2019-05-05T07:06:51.770Z,19.43
2019-05-05T07:09:14.752Z,17.90
2019-05-05T07:11:47.637Z,21.13
2019-05-05T07:14:20.739Z,22.40
2019-05-05T07:16:54.440Z,21.77
2019-05-05T07:19:27.693Z,26.23
2019-05-05T07:22:00.686Z,17.63
2019-05-05T07:24:34.510Z,18.23
2019-05-05T07:27:07.528Z,19.67
2019-05-05T07:29:40.352Z,20.30
2019-05-05T07:32:14.160Z,24.10
2019-05-05T07:35:04.193Z,21.40
2019-05-05T07:37:37.700Z,29.00
2019-05-05T07:40:10.802Z,25.67
2019-05-05T07:42:44.133Z,27.43
2019-05-05T07:45:23.089Z,25.50
2019-05-05T07:47:54.342Z,25.17
2019-05-05T07:50:32.175Z,28.40
2019-05-05T07:53:12.265Z,33.03
2019-05-05T07:55:37.202Z,29.93
2019-05-05T07:58:10.174Z,34.03
2019-05-05T08:00:43.785Z,28.20
2019-05-05T08:03:16.662Z,32.50
2019-05-05T08:05:49.434Z,27.03
2019-05-05T08:08:24.309Z,30.60
2019-05-05T08:10:56.993Z,35.27
2019-05-05T08:13:29.928Z,22.90
2019-05-05T08:16:05.847Z,28.57
2019-05-05T08:18:55.059Z,31.40
2019-05-05T08:21:28.095Z,35.70
2019-05-05T08:24:29.870Z,40.07
2019-05-05T08:27:27.885Z,32.40
2019-05-05T08:30:06.020Z,38.13
2019-05-05T08:32:39.099Z,40.90
2019-05-05T08:35:14.682Z,33.93
2019-05-05T08:37:47.552Z,34.80
2019-05-05T08:40:20.788Z,41.53
2019-05-05T08:42:54.028Z,43.57
2019-05-05T08:45:27.200Z,40.23
2019-05-05T08:48:00.180Z,45.47
2019-05-05T08:50:34.894Z,41.90
2019-05-05T08:53:08.592Z,39.27
2019-05-05T08:55:41.615Z,44.17
2019-05-05T08:58:15.023Z,39.53
2019-05-05T09:00:48.190Z,43.23
2019-05-05T09:03:20.983Z,45.23
2019-05-05T09:05:54.322Z,42.30
2019-05-05T09:08:27.258Z,38.83
2019-05-05T09:11:00.149Z,33.07
2019-05-05T09:13:33.972Z,35.80
2019-05-05T09:16:07.420Z,38.53
2019-05-05T09:18:57.849Z,32.63
2019-05-05T09:21:30.704Z,51.90
2019-05-05T09:24:41.263Z,43.27
2019-05-05T09:27:36.885Z,39.57
2019-05-05T09:30:11.343Z,38.63
2019-05-05T09:32:44.639Z,31.37
2019-05-05T09:35:17.535Z,34.73
2019-05-05T09:37:50.443Z,36.67
2019-05-05T09:40:34.807Z,26.00
2019-05-05T09:43:08.328Z,32.30
2019-05-05T09:45:41.389Z,30.27
2019-05-05T09:48:14.310Z,30.13
2019-05-05T09:50:47.324Z,27.47
2019-05-05T09:53:20.169Z,32.30
2019-05-05T09:55:54.726Z,30.37
2019-05-05T09:58:28.880Z,21.97
2019-05-05T10:01:04.454Z,26.03
2019-05-05T10:03:37.394Z,25.57
2019-05-05T10:06:10.305Z,23.43
2019-05-05T10:08:44.621Z,17.57
2019-05-05T10:11:18.299Z,18.87
2019-05-05T10:13:51.338Z,20.32
2019-05-05T10:16:24.254Z,12.68
2019-05-05T10:18:57.170Z,18.52
2019-05-05T10:21:30.065Z,15.80
2019-05-05T10:24:08.656Z,21.35
2019-05-05T10:26:43.714Z,23.05
2019-05-05T10:29:16.235Z,20.02
2019-05-05T10:31:49.248Z,20.92
2019-05-05T10:34:24.061Z,26.12
2019-05-05T10:36:57.025Z,25.77
2019-05-05T10:39:37.488Z,28.07
2019-05-05T10:42:10.446Z,25.88
2019-05-05T10:44:44.585Z,19.05
2019-05-05T10:47:17.779Z,21.00
2019-05-05T10:49:50.711Z,22.65
2019-05-05T10:52:23.551Z,19.20
2019-05-05T10:54:56.567Z,21.20
2019-05-05T10:57:30.566Z,23.07
2019-05-05T11:00:12.301Z,20.88
2019-05-05T11:02:38.942Z,21.02
2019-05-05T11:05:12.058Z,20.88
2019-05-05T11:07:45.826Z,15.43
2019-05-05T11:10:24.737Z,19.67
2019-05-05T11:12:57.996Z,21.60
2019-05-05T11:15:31.075Z,15.83
2019-05-05T11:18:04.173Z,21.48
2019-05-05T11:20:38.050Z,20.82
2019-05-05T11:23:11.137Z,30.30
2019-05-05T11:25:44.578Z,20.77
2019-05-05T11:28:17.579Z,24.20
2019-05-05T11:30:50.710Z,20.27
2019-05-05T11:33:46.122Z,19.67
2019-05-05T11:36:24.001Z,19.23
2019-05-05T11:38:57.076Z,23.42
2019-05-05T11:41:29.990Z,16.62
2019-05-05T11:44:04.124Z,25.12
2019-05-05T11:46:37.111Z,23.07
2019-05-05T11:49:10.126Z,25.12
2019-05-05T11:51:43.728Z,20.57
2019-05-05T11:54:17.008Z,19.82
2019-05-05T11:56:50.071Z,21.85
2019-05-05T11:59:23.720Z,15.45
2019-05-05T12:01:57.376Z,15.80
2019-05-05T12:04:30.225Z,18.32
2019-05-05T12:07:04.105Z,15.23
2019-05-05T12:09:44.398Z,15.65
2019-05-05T12:12:17.348Z,16.77
2019-05-05T12:14:51.004Z,21.45
2019-05-05T12:17:36.317Z,16.77
2019-05-05T12:20:13.517Z,13.38
2019-05-05T12:22:46.263Z,14.43
2019-05-05T12:25:43.606Z,12.90
2019-05-05T12:28:34.631Z,15.00
2019-05-05T12:31:14.159Z,18.20
2019-05-05T12:33:47.121Z,13.53
2019-05-05T12:36:20.561Z,15.13
2019-05-05T12:38:54.580Z,8.53
2019-05-05T12:41:27.828Z,12.63
2019-05-05T12:44:03.292Z,12.75
2019-05-05T12:46:56.068Z,10.70
2019-05-05T12:49:28.940Z,10.65
2019-05-05T12:52:21.353Z,8.50
2019-05-05T12:54:54.627Z,9.20
2019-05-05T12:57:27.831Z,15.00
2019-05-05T13:00:00.687Z,14.58
2019-05-05T13:02:33.477Z,15.75
2019-05-05T13:05:06.682Z,13.68
2019-05-05T13:07:39.556Z,13.20
2019-05-05T13:10:16.043Z,11.75
2019-05-05T13:12:49.101Z,11.08
2019-05-05T13:15:22.186Z,19.87
2019-05-05T13:18:07.753Z,15.55
2019-05-05T13:21:04.241Z,15.03
2019-05-05T13:23:53.896Z,21.05
2019-05-05T13:26:41.511Z,13.78
2019-05-05T13:29:14.481Z,12.93
2019-05-05T13:31:47.332Z,12.18
2019-05-05T13:34:21.233Z,10.10
2019-05-05T13:36:54.368Z,16.87
2019-05-05T13:39:27.270Z,10.25
2019-05-05T13:42:00.066Z,7.87
2019-05-05T13:44:59.618Z,12.35
2019-05-05T13:47:34.413Z,9.23
2019-05-05T13:50:14.054Z,13.55
2019-05-05T13:52:47.347Z,13.03
2019-05-05T13:55:20.242Z,19.87
2019-05-05T13:57:54.851Z,19.55
2019-05-05T14:00:27.994Z,13.68
2019-05-05T14:03:00.958Z,13.28
2019-05-05T14:05:34.460Z,14.00
2019-05-05T14:08:07.479Z,16.77
2019-05-05T14:10:40.462Z,11.08
2019-05-05T14:13:15.246Z,9.90
2019-05-05T14:15:48.412Z,8.63
2019-05-05T14:18:23.053Z,12.20
2019-05-05T14:20:56.298Z,15.63
2019-05-05T14:23:31.067Z,9.90
2019-05-05T14:26:04.001Z,9.20
2019-05-05T14:28:36.805Z,13.50
2019-05-05T14:31:14.076Z,8.70
2019-05-05T14:33:55.298Z,13.70
2019-05-05T14:36:53.668Z,10.08
2019-05-05T14:39:26.662Z,9.53
2019-05-05T14:41:59.676Z,12.75
2019-05-05T14:44:34.337Z,9.43
2019-05-05T14:47:07.383Z,12.80
2019-05-05T14:49:40.329Z,9.48
2019-05-05T14:52:13.664Z,13.65
2019-05-05T14:54:47.998Z,10.30
2019-05-05T14:57:24.495Z,9.43
2019-05-05T14:59:57.548Z,8.85
2019-05-05T15:02:30.724Z,10.78
2019-05-05T15:05:33.862Z,9.83
2019-05-05T15:08:15.588Z,12.63
2019-05-05T15:10:54.771Z,10.90
2019-05-05T15:13:28.115Z,12.95
2019-05-05T15:16:01.189Z,14.03
2019-05-05T15:18:34.656Z,11.95
2019-05-05T15:21:07.503Z,14.83
2019-05-05T15:23:40.463Z,13.68
2019-05-05T15:26:13.319Z,16.67
2019-05-05T15:28:58.655Z,8.93
2019-05-05T15:31:21.210Z,13.53
2019-05-05T15:33:54.154Z,18.07
2019-05-05T15:36:29.508Z,17.20
2019-05-05T15:39:02.023Z,10.95
2019-05-05T15:41:36.810Z,10.70
2019-05-05T15:44:09.598Z,16.67
2019-05-05T15:46:44.171Z,11.73
2019-05-05T15:49:17.119Z,10.43
2019-05-05T15:51:50.209Z,11.60
2019-05-05T15:54:23.602Z,20.75
2019-05-05T15:57:05.312Z,11.95
2019-05-05T15:59:31.919Z,61.02
2019-05-05T16:02:04.811Z,15.45
2019-05-05T16:04:37.838Z,20.48
2019-05-05T16:07:10.696Z,11.40
2019-05-05T16:09:44.338Z,16.80
2019-05-05T16:12:31.018Z,14.58
2019-05-05T16:15:18.934Z,12.47
2019-05-05T16:18:09.253Z,8.95
2019-05-05T16:20:47.235Z,18.87
2019-05-05T16:23:26.524Z,13.68
2019-05-05T16:26:00.465Z,13.50
2019-05-05T16:28:34.284Z,15.83
2019-05-05T16:31:07.500Z,9.75
2019-05-05T16:33:40.369Z,16.10
2019-05-05T16:36:13.932Z,10.82
2019-05-05T16:38:47.075Z,15.38
2019-05-05T16:41:20.090Z,14.70
2019-05-05T16:43:53.440Z,18.95
2019-05-05T16:46:26.429Z,11.00
2019-05-05T16:48:59.521Z,11.23
2019-05-05T16:51:35.844Z,11.43
2019-05-05T16:54:16.740Z,13.40
2019-05-05T16:56:50.777Z,13.03
2019-05-05T16:59:24.994Z,14.30
2019-05-05T17:01:58.353Z,9.50
2019-05-05T17:04:31.242Z,9.40
2019-05-05T17:07:04.334Z,10.10
2019-05-05T17:09:37.379Z,9.68
2019-05-05T17:12:10.561Z,11.97
2019-05-05T17:15:09.024Z,11.93
2019-05-05T17:18:01.471Z,12.33
2019-05-05T17:20:39.504Z,11.00
2019-05-05T17:23:12.880Z,11.03
2019-05-05T17:25:45.652Z,10.15
2019-05-05T17:28:18.426Z,13.55
2019-05-05T17:30:51.224Z,7.75
2019-05-05T17:33:24.267Z,14.70
2019-05-05T17:35:57.118Z,12.55
2019-05-05T17:38:30.289Z,10.43
2019-05-05T17:41:30.041Z,11.75
2019-05-05T17:44:14.152Z,10.98
2019-05-05T17:47:13.907Z,14.03
2019-05-05T17:50:14.341Z,15.78
2019-05-05T17:53:06.606Z,9.08
2019-05-05T17:55:40.712Z,11.68
2019-05-05T17:58:13.769Z,14.23
2019-05-05T18:00:54.360Z,10.05
2019-05-05T18:03:27.543Z,11.68
2019-05-05T18:06:19.842Z,13.60
2019-05-05T18:08:57.017Z,8.68
2019-05-05T18:11:48.346Z,18.07
2019-05-05T18:14:24.171Z,10.60
2019-05-05T18:16:57.547Z,14.03
2019-05-05T18:19:30.542Z,13.35
2019-05-05T18:22:03.629Z,9.30
2019-05-05T18:24:36.441Z,16.73
2019-05-05T18:27:09.491Z,19.87
2019-05-05T18:29:43.596Z,14.30
2019-05-05T18:32:16.622Z,17.00
2019-05-05T18:34:49.455Z,13.00
2019-05-05T18:37:24.060Z,10.40
2019-05-05T18:39:56.998Z,10.90
2019-05-05T18:42:29.997Z,10.27
2019-05-05T18:45:07.303Z,16.40
2019-05-05T18:47:40.088Z,13.63
2019-05-05T18:50:13.640Z,14.53
2019-05-05T18:52:47.313Z,18.30
2019-05-05T18:55:20.648Z,11.00
2019-05-05T18:57:54.152Z,11.47
2019-05-05T19:00:45.852Z,13.37
2019-05-05T19:03:24.517Z,16.30
2019-05-05T19:06:17.132Z,15.40
2019-05-05T19:08:56.549Z,18.77
2019-05-05T19:11:26.703Z,15.83
2019-05-05T19:13:59.587Z,15.97
2019-05-05T19:16:34.511Z,18.90
2019-05-05T19:19:07.434Z,17.80
2019-05-05T19:21:43.747Z,15.00
2019-05-05T19:24:16.987Z,13.83
2019-05-05T19:26:50.136Z,17.67
2019-05-05T19:29:24.306Z,17.53
2019-05-05T19:31:58.322Z,19.73
2019-05-05T19:34:35.116Z,11.60
2019-05-05T19:37:06.224Z,13.60
2019-05-05T19:39:39.163Z,13.67
2019-05-05T19:42:14.301Z,12.83
2019-05-05T19:44:46.857Z,11.67
2019-05-05T19:47:20.833Z,15.13
2019-05-05T19:50:02.451Z,12.10
2019-05-05T19:52:35.729Z,15.87
2019-05-05T19:55:09.493Z,15.83
2019-05-05T19:57:44.485Z,14.33
2019-05-05T20:00:18.365Z,15.30
2019-05-05T20:03:03.977Z,12.30
2019-05-05T20:05:26.243Z,13.43
2019-05-05T20:07:59.247Z,15.73
2019-05-05T20:10:33.334Z,18.23
2019-05-05T20:13:06.437Z,17.63
2019-05-05T20:15:49.013Z,14.57
2019-05-05T20:18:22.122Z,39.77
2019-05-05T20:21:03.993Z,13.47
2019-05-05T20:23:29.840Z,14.77
2019-05-05T20:26:15.197Z,17.30
2019-05-05T20:28:48.067Z,13.03
2019-05-05T20:31:23.770Z,17.43
2019-05-05T20:34:24.255Z,17.53
2019-05-05T20:37:07.904Z,19.23
2019-05-05T20:39:40.871Z,13.07
2019-05-05T20:42:14.901Z,13.53
2019-05-05T20:44:48.004Z,13.60
2019-05-05T20:47:21.062Z,12.50
2019-05-05T20:49:54.139Z,16.10
2019-05-05T20:52:27.114Z,17.40
2019-05-05T20:55:00.088Z,15.30
2019-05-05T20:57:34.446Z,13.93
2019-05-05T21:00:10.340Z,17.07
2019-05-05T21:02:45.003Z,19.70
2019-05-05T21:05:17.787Z,11.83
2019-05-05T21:07:50.619Z,18.80
2019-05-05T21:10:24.149Z,15.40
2019-05-05T21:12:57.192Z,14.43
2019-05-05T21:15:30.223Z,16.33
2019-05-05T21:18:04.958Z,20.23
2019-05-05T21:20:37.988Z,11.00
2019-05-05T21:23:15.715Z,14.67
2019-05-05T21:26:13.967Z,13.97
2019-05-05T21:28:47.334Z,14.23
2019-05-05T21:31:20.210Z,22.67
2019-05-05T21:33:54.889Z,13.50
2019-05-05T21:36:27.997Z,14.20
2019-05-05T21:39:00.849Z,16.37
2019-05-05T21:41:34.014Z,17.33
2019-05-05T21:44:06.993Z,14.20
2019-05-05T21:46:39.930Z,19.33
2019-05-05T21:49:13.666Z,11.63
2019-05-05T21:51:54.245Z,15.73
2019-05-05T21:54:44.122Z,15.93
2019-05-05T21:57:35.580Z,14.47
2019-05-05T22:00:28.952Z,16.23
2019-05-05T22:03:04.514Z,20.57
2019-05-05T22:05:38.073Z,14.07
2019-05-05T22:08:10.966Z,16.13
2019-05-05T22:10:43.967Z,14.33
2019-05-05T22:13:17.238Z,18.43
2019-05-05T22:15:50.300Z,10.27
2019-05-05T22:18:23.125Z,11.60
2019-05-05T22:21:14.524Z,15.60
2019-05-05T22:24:05.600Z,14.07
2019-05-05T22:26:38.518Z,26.67
2019-05-05T22:29:14.110Z,19.97
2019-05-05T22:31:47.691Z,15.67
2019-05-05T22:34:20.650Z,14.17
2019-05-05T22:36:53.605Z,15.63
2019-05-05T22:39:26.526Z,14.17
2019-05-05T22:41:59.299Z,22.33
2019-05-05T22:44:33.901Z,18.93
2019-05-05T22:47:07.041Z,20.43
2019-05-05T22:49:39.928Z,18.27
2019-05-05T22:52:14.473Z,17.43
2019-05-05T22:54:47.400Z,19.30
2019-05-05T22:57:20.226Z,20.17
2019-05-05T22:59:54.103Z,20.17
2019-05-05T23:02:30.364Z,20.43
2019-05-05T23:05:14.886Z,17.00
2019-05-05T23:07:47.654Z,20.70
2019-05-05T23:10:20.369Z,16.80
2019-05-05T23:12:54.396Z,21.00
2019-05-05T23:15:27.461Z,17.43
2019-05-05T23:18:25.419Z,17.30
2019-05-05T23:21:09.630Z,18.53
2019-05-05T23:23:59.931Z,24.60
2019-05-05T23:26:35.936Z,24.03
2019-05-05T23:29:08.800Z,16.53
2019-05-05T23:31:41.737Z,21.47
2019-05-05T23:34:14.805Z,18.37
2019-05-05T23:36:47.935Z,21.27
2019-05-05T23:39:20.715Z,23.53
2019-05-05T23:41:54.709Z,20.83
2019-05-05T23:44:27.697Z,21.17
2019-05-05T23:47:00.506Z,17.80
2019-05-05T23:49:34.894Z,21.90
2019-05-05T23:52:07.755Z,20.93
2019-05-05T23:54:40.595Z,21.63
2019-05-05T23:57:13.813Z,21.33
2019-05-05T23:59:46.637Z,19.67
